Terminal Aerodrome Forecast
Issued by NWS

Home | Current Version | Previous Version | Text Only | Print | Product List | Glossary Off
Versions: 1 2 3 4 5 6 7 8 9 10 11 12 13

000
FTUS45 KGGW 301700
TAFSDY
TAF
KSDY 301720Z 3018/3118 17012KT 6SM -SHRA OVC090
     FM310000 31008KT P6SM VCTS BKN045CB
     FM310600 VRB05KT P6SM BKN060
      AMD LTD TO CLD VIS AND WIND=

USA.gov is the U.S. government's official web portal to all federal, state and local government web resources and services.